Terminal Aerodrome Forecast
Issued by NWS

Home | Current Version | Previous Version | Text Only | Print | Product List | Glossary On
Versions: 1 2 3 4 5 6 7 8 9 10 11 12 13 14
000
FTUS43 KMPX 031724
TAFRNH
TAF
KRNH 031724Z 0318/0418 18008KT P6SM -SHRA VCTS BKN025CB OVC035
      TEMPO 0318/0321 5SM -TSRA BR OVC020CB
     FM040130 19004KT 6SM BR VCSH OVC020
     FM040500 22004KT 4SM BR OVC018
     FM040800 VRB03KT 2SM BR OVC007
     FM041700 34004KT P6SM OVC015=

USA.gov is the U.S. government's official web portal to all federal, state and local government web resources and services.